createdAt,value
2019-05-26T00:00:49.644Z,99581.20
2019-05-26T00:03:18.033Z,99580.27
2019-05-26T00:05:46.425Z,99592.56
2019-05-26T00:08:14.837Z,99591.33
2019-05-26T00:10:43.223Z,99585.59
2019-05-26T00:13:11.631Z,99585.15
2019-05-26T00:15:40.599Z,99585.55
2019-05-26T00:18:09.003Z,99590.79
2019-05-26T00:20:37.454Z,99586.85
2019-05-26T00:23:05.850Z,99584.60
2019-05-26T00:25:34.246Z,99581.52
2019-05-26T00:28:02.652Z,99574.92
2019-05-26T00:30:31.297Z,99577.58
2019-05-26T00:32:59.705Z,99575.39
2019-05-26T00:35:28.109Z,99575.86
2019-05-26T00:37:56.882Z,99570.58
2019-05-26T00:40:25.347Z,99570.10
2019-05-26T00:42:53.755Z,99567.91
2019-05-26T00:45:25.249Z,99574.47
2019-05-26T00:47:53.667Z,99568.76
2019-05-26T00:50:22.327Z,99570.01
2019-05-26T00:52:50.870Z,99567.80
2019-05-26T00:55:19.708Z,99560.73
2019-05-26T00:57:48.103Z,99560.24
2019-05-26T01:00:19.540Z,99561.10
2019-05-26T01:02:47.961Z,99558.45
2019-05-26T01:05:16.418Z,99555.38
2019-05-26T01:07:44.807Z,99557.13
2019-05-26T01:10:13.871Z,99559.77
2019-05-26T01:12:42.275Z,99559.77
2019-05-26T01:15:11.514Z,99558.48
2019-05-26T01:17:39.915Z,99560.67
2019-05-26T01:20:09.044Z,99560.72
2019-05-26T01:22:37.443Z,99560.32
2019-05-26T01:25:07.637Z,99563.38
2019-05-26T01:27:36.575Z,99555.43
2019-05-26T01:30:07.073Z,99556.28
2019-05-26T01:32:35.459Z,99558.38
2019-05-26T01:35:05.315Z,99559.20
2019-05-26T01:37:34.037Z,99555.64
2019-05-26T01:40:02.464Z,99564.80
2019-05-26T01:42:30.858Z,99566.13
2019-05-26T01:44:59.239Z,99568.73
2019-05-26T01:47:28.114Z,99573.51
2019-05-26T01:49:56.500Z,99572.63
2019-05-26T01:52:25.167Z,99573.03
2019-05-26T01:54:53.586Z,99578.99
2019-05-26T01:57:22.121Z,99574.45
2019-05-26T01:59:50.534Z,99580.90
2019-05-26T02:02:18.931Z,99579.97
2019-05-26T02:04:47.321Z,99577.98
2019-05-26T02:07:15.752Z,99578.99
2019-05-26T02:09:44.158Z,99571.26
2019-05-26T02:12:12.533Z,99577.46
2019-05-26T02:14:40.946Z,99573.02
2019-05-26T02:17:09.405Z,99579.47
2019-05-26T02:19:37.798Z,99578.41
2019-05-26T02:22:06.865Z,99581.37
2019-05-26T02:24:35.614Z,99576.04
2019-05-26T02:27:04.049Z,99572.92
2019-05-26T02:29:32.386Z,99571.17
2019-05-26T02:32:01.104Z,99570.33
2019-05-26T02:34:29.753Z,99571.19
2019-05-26T02:36:58.145Z,99567.20
2019-05-26T02:39:26.556Z,99562.33
2019-05-26T02:41:54.940Z,99559.64
2019-05-26T02:44:23.354Z,99555.67
2019-05-26T02:46:51.767Z,99562.29
2019-05-26T02:49:20.156Z,99557.48
2019-05-26T02:51:48.557Z,99554.39
2019-05-26T02:54:17.064Z,99557.41
2019-05-26T02:56:45.510Z,99557.84
2019-05-26T02:59:14.145Z,99557.36
2019-05-26T03:02:00.792Z,99555.58
2019-05-26T03:04:12.935Z,99545.88
2019-05-26T03:06:42.478Z,99545.72
2019-05-26T03:09:22.985Z,99549.13
2019-05-26T03:11:42.789Z,99547.30
2019-05-26T03:14:11.718Z,99548.59
2019-05-26T03:16:43.782Z,99543.70
2019-05-26T03:19:14.484Z,99549.78
2019-05-26T03:21:45.183Z,99554.10
2019-05-26T03:24:16.952Z,99557.59
2019-05-26T03:26:45.427Z,99548.76
2019-05-26T03:29:13.816Z,99545.25
2019-05-26T03:31:42.218Z,99544.73
2019-05-26T03:34:10.619Z,99549.19
2019-05-26T03:36:39.002Z,99546.27
2019-05-26T03:39:07.765Z,99551.09
2019-05-26T03:41:36.182Z,99551.47
2019-05-26T03:44:04.653Z,99553.52
2019-05-26T03:46:33.039Z,99549.45
2019-05-26T03:49:01.450Z,99551.55
2019-05-26T03:51:29.834Z,99559.80
2019-05-26T03:53:58.290Z,99564.58
2019-05-26T03:56:26.713Z,99559.30
2019-05-26T03:58:55.104Z,99561.02
2019-05-26T04:01:23.578Z,99557.08
2019-05-26T04:03:51.916Z,99555.71
2019-05-26T04:06:20.728Z,99554.83
2019-05-26T04:08:49.116Z,99558.77
2019-05-26T04:11:17.510Z,99556.58
2019-05-26T04:13:46.175Z,99561.41
2019-05-26T04:16:14.579Z,99565.81
2019-05-26T04:18:42.967Z,99571.95
2019-05-26T04:21:11.360Z,99576.38
2019-05-26T04:23:39.836Z,99572.45
2019-05-26T04:26:08.233Z,99575.13
2019-05-26T04:28:36.630Z,99572.99
2019-05-26T04:31:05.097Z,99566.92
2019-05-26T04:33:33.524Z,99568.33
2019-05-26T04:36:01.897Z,99567.52
2019-05-26T04:38:30.293Z,99574.17
2019-05-26T04:40:58.680Z,99573.36
2019-05-26T04:43:27.106Z,99568.19
2019-05-26T04:45:55.491Z,99565.69
2019-05-26T04:48:23.885Z,99557.89
2019-05-26T04:50:52.367Z,99556.69
2019-05-26T04:53:20.777Z,99555.45
2019-05-26T04:55:49.176Z,99557.68
2019-05-26T04:58:17.908Z,99561.30
2019-05-26T05:00:46.297Z,99560.92
2019-05-26T05:03:14.715Z,99560.55
2019-05-26T05:05:43.113Z,99567.19
2019-05-26T05:08:11.527Z,99567.25
2019-05-26T05:10:42.735Z,99566.45
2019-05-26T05:13:10.035Z,99572.64
2019-05-26T05:15:38.496Z,99571.37
2019-05-26T05:18:06.876Z,99566.16
2019-05-26T05:20:35.303Z,99560.94
2019-05-26T05:23:03.774Z,99563.60
2019-05-26T05:25:32.194Z,99561.91
2019-05-26T05:28:00.605Z,99562.80
2019-05-26T05:30:29.143Z,99560.61
2019-05-26T05:32:57.493Z,99561.53
2019-05-26T05:35:25.967Z,99565.94
2019-05-26T05:37:54.382Z,99565.09
2019-05-26T05:40:22.866Z,99562.49
2019-05-26T05:42:51.271Z,99560.78
2019-05-26T05:45:19.742Z,99561.73
2019-05-26T05:47:48.131Z,99565.27
2019-05-26T05:50:16.994Z,99560.46
2019-05-26T05:52:45.635Z,99564.02
2019-05-26T05:55:15.728Z,99563.62
2019-05-26T05:57:44.131Z,99558.37
2019-05-26T06:00:13.185Z,99561.06
2019-05-26T06:02:41.589Z,99564.59
2019-05-26T06:05:10.146Z,99567.27
2019-05-26T06:07:38.535Z,99568.61
2019-05-26T06:10:10.414Z,99564.67
2019-05-26T06:12:38.867Z,99569.98
2019-05-26T06:15:12.174Z,99565.59
2019-05-26T06:17:41.128Z,99564.32
2019-05-26T06:20:10.114Z,99558.66
2019-05-26T06:22:41.303Z,99555.17
2019-05-26T06:25:10.982Z,99559.17
2019-05-26T06:27:39.405Z,99554.41
2019-05-26T06:30:11.186Z,99557.93
2019-05-26T06:32:42.375Z,99548.27
2019-05-26T06:35:14.355Z,99551.31
2019-05-26T06:37:42.752Z,99552.60
2019-05-26T06:40:11.703Z,99562.23
2019-05-26T06:42:40.247Z,99565.66
2019-05-26T06:45:09.304Z,99555.40
2019-05-26T06:47:37.701Z,99553.06
2019-05-26T06:50:06.766Z,99554.25
2019-05-26T06:52:35.392Z,99545.59
2019-05-26T06:55:04.934Z,99545.29
2019-05-26T06:57:33.645Z,99541.02
2019-05-26T07:00:02.053Z,99534.63
2019-05-26T07:02:30.486Z,99540.30
2019-05-26T07:04:58.875Z,99540.08
2019-05-26T07:07:27.295Z,99543.70
2019-05-26T07:09:55.888Z,99541.09
2019-05-26T07:12:24.294Z,99537.97
2019-05-26T07:14:52.695Z,99539.53
2019-05-26T07:17:21.114Z,99540.34
2019-05-26T07:19:49.524Z,99538.26
2019-05-26T07:22:17.936Z,99535.78
2019-05-26T07:24:46.329Z,99540.55
2019-05-26T07:27:15.023Z,99530.77
2019-05-26T07:29:43.684Z,99530.38
2019-05-26T07:32:12.125Z,99523.57
2019-05-26T07:34:40.526Z,99525.00
2019-05-26T07:37:08.966Z,99522.39
2019-05-26T07:39:37.365Z,99521.71
2019-05-26T07:42:10.532Z,99515.29
2019-05-26T07:44:35.920Z,99515.97
2019-05-26T07:47:04.673Z,99519.90
2019-05-26T07:49:33.079Z,99520.44
2019-05-26T07:52:01.502Z,99519.60
2019-05-26T07:54:30.233Z,99520.45
2019-05-26T07:56:58.655Z,99513.09
2019-05-26T07:59:27.053Z,99513.09
2019-05-26T08:01:55.580Z,99512.69
2019-05-26T08:04:23.972Z,99511.25
2019-05-26T08:06:52.376Z,99513.33
2019-05-26T08:09:21.123Z,99510.25
2019-05-26T08:11:49.522Z,99502.33
2019-05-26T08:14:17.914Z,99500.31
2019-05-26T08:16:46.319Z,99503.66
2019-05-26T08:19:14.798Z,99509.19
2019-05-26T08:21:43.533Z,99505.09
2019-05-26T08:24:11.936Z,99504.17
2019-05-26T08:26:40.326Z,99497.85
2019-05-26T08:29:08.730Z,99502.08
2019-05-26T08:31:37.128Z,99495.40
2019-05-26T08:34:05.620Z,99491.25
2019-05-26T08:36:34.018Z,99494.42
2019-05-26T08:39:02.527Z,99492.47
2019-05-26T08:41:30.914Z,99488.22
2019-05-26T08:44:00.167Z,99479.50
2019-05-26T08:46:28.600Z,99469.39
2019-05-26T08:48:56.991Z,99470.95
2019-05-26T08:51:25.384Z,99474.02
2019-05-26T08:53:53.802Z,99469.58
2019-05-26T08:56:22.195Z,99473.66
2019-05-26T08:58:50.658Z,99462.59
2019-05-26T09:01:19.094Z,99463.69
2019-05-26T09:03:47.484Z,99457.69
2019-05-26T09:06:15.880Z,99457.45
2019-05-26T09:08:44.546Z,99451.97
2019-05-26T09:11:12.928Z,99455.72
2019-05-26T09:13:43.576Z,99453.29
2019-05-26T09:16:11.976Z,99451.17
2019-05-26T09:18:40.375Z,99453.39
2019-05-26T09:21:08.802Z,99452.91
2019-05-26T09:23:40.399Z,99455.28
2019-05-26T09:26:11.824Z,99450.28
2019-05-26T09:28:40.211Z,99445.37
2019-05-26T09:31:08.598Z,99446.06
2019-05-26T09:33:37.058Z,99447.14
2019-05-26T09:36:05.424Z,99450.23
2019-05-26T09:38:33.826Z,99448.98
2019-05-26T09:41:02.243Z,99443.40
2019-05-26T09:43:30.624Z,99446.03
2019-05-26T09:45:59.031Z,99443.25
2019-05-26T09:48:27.431Z,99447.47
2019-05-26T09:50:55.839Z,99438.55
2019-05-26T09:53:24.236Z,99445.46
2019-05-26T09:55:52.633Z,99437.64
2019-05-26T09:58:21.026Z,99435.37
2019-05-26T10:00:49.509Z,99431.88
2019-05-26T10:03:17.915Z,99430.75
2019-05-26T10:05:46.324Z,99423.59
2019-05-26T10:08:14.965Z,99424.15
2019-05-26T10:10:43.448Z,99426.58
2019-05-26T10:13:11.838Z,99429.41
2019-05-26T10:15:40.253Z,99423.33
2019-05-26T10:18:08.653Z,99426.01
2019-05-26T10:20:37.066Z,99429.28
2019-05-26T10:23:05.459Z,99426.08
2019-05-26T10:25:34.115Z,99426.20
2019-05-26T10:28:02.508Z,99411.25
2019-05-26T10:30:30.995Z,99419.75
2019-05-26T10:32:59.391Z,99419.89
2019-05-26T10:35:27.804Z,99417.26
2019-05-26T10:37:56.187Z,99413.77
2019-05-26T10:40:24.588Z,99411.12
2019-05-26T10:42:53.022Z,99409.34
2019-05-26T10:45:21.499Z,99404.94
2019-05-26T10:47:49.881Z,99404.13
2019-05-26T10:50:18.628Z,99402.08
2019-05-26T10:52:47.029Z,99398.69
2019-05-26T10:55:15.792Z,99395.58
2019-05-26T10:57:44.176Z,99398.18
2019-05-26T11:00:12.911Z,99388.41
2019-05-26T11:02:41.991Z,99388.41
2019-05-26T11:05:10.945Z,99393.21
2019-05-26T11:07:39.345Z,99384.91
2019-05-26T11:10:08.381Z,99384.84
2019-05-26T11:12:36.966Z,99374.97
2019-05-26T11:15:09.342Z,99374.97
2019-05-26T11:17:37.770Z,99368.41
2019-05-26T11:20:12.446Z,99365.84
2019-05-26T11:22:40.875Z,99363.70
2019-05-26T11:25:09.567Z,99368.33
2019-05-26T11:28:00.161Z,99357.27
2019-05-26T11:30:16.779Z,99346.56
2019-05-26T11:32:45.193Z,99350.87
2019-05-26T11:35:14.936Z,99342.91
2019-05-26T11:37:43.351Z,99341.61
2019-05-26T11:40:12.078Z,99338.00
2019-05-26T11:42:40.495Z,99344.34
2019-05-26T11:45:10.520Z,99335.01
2019-05-26T11:47:39.001Z,99326.94
2019-05-26T11:50:07.834Z,99320.67
2019-05-26T11:52:36.326Z,99329.26
2019-05-26T11:55:07.098Z,99318.50
2019-05-26T11:57:36.959Z,99318.14
2019-05-26T12:00:09.782Z,99316.55
2019-05-26T12:02:38.905Z,99316.27
2019-05-26T12:05:10.300Z,99316.23
2019-05-26T12:07:39.304Z,99312.77
2019-05-26T12:10:08.251Z,99319.66
2019-05-26T12:12:36.772Z,99307.30
2019-05-26T12:15:09.870Z,99304.86
2019-05-26T12:17:39.288Z,99307.48
2019-05-26T12:20:08.725Z,99308.52
2019-05-26T12:22:37.141Z,99297.91
2019-05-26T12:25:09.020Z,99297.19
2019-05-26T12:27:37.438Z,99301.41
2019-05-26T12:30:08.047Z,99288.52
2019-05-26T12:32:36.453Z,99296.22
2019-05-26T12:35:07.509Z,99296.22
2019-05-26T12:37:35.911Z,99293.62
2019-05-26T12:40:06.353Z,99281.47
2019-05-26T12:42:34.745Z,99279.69
2019-05-26T12:45:06.456Z,99285.64
2019-05-26T12:47:34.976Z,99285.64
2019-05-26T12:50:04.816Z,99290.30
2019-05-26T12:52:33.215Z,99284.37
2019-05-26T12:55:01.687Z,99282.38
2019-05-26T12:57:30.104Z,99273.19
2019-05-26T12:59:58.879Z,99266.22
2019-05-26T13:02:27.279Z,99265.77
2019-05-26T13:04:55.731Z,99258.23
2019-05-26T13:07:24.433Z,99258.93
2019-05-26T13:09:52.845Z,99246.78
2019-05-26T13:12:21.923Z,99246.78
2019-05-26T13:15:04.937Z,99262.63
2019-05-26T13:17:20.847Z,99259.44
2019-05-26T13:19:49.234Z,99246.14
2019-05-26T13:22:17.642Z,99246.14
2019-05-26T13:24:46.116Z,99255.98
2019-05-26T13:27:14.734Z,99253.96
2019-05-26T13:29:43.150Z,99252.25
2019-05-26T13:32:11.578Z,99253.08
2019-05-26T13:34:39.980Z,99254.10
2019-05-26T13:37:08.604Z,99251.46
2019-05-26T13:39:37.005Z,99252.58
2019-05-26T13:42:05.533Z,99249.62
2019-05-26T13:44:33.944Z,99251.91
2019-05-26T13:47:02.353Z,99254.64
2019-05-26T13:49:30.777Z,99255.56
2019-05-26T13:51:59.201Z,99259.34
2019-05-26T13:54:27.611Z,99262.67
2019-05-26T13:56:56.005Z,99252.23
2019-05-26T13:59:24.435Z,99255.39
2019-05-26T14:01:52.845Z,99261.45
2019-05-26T14:04:21.230Z,99250.44
2019-05-26T14:06:49.650Z,99248.00
2019-05-26T14:09:18.065Z,99255.09
2019-05-26T14:11:46.479Z,99249.27
2019-05-26T14:14:14.865Z,99253.84
2019-05-26T14:16:44.879Z,99240.76
2019-05-26T14:19:13.625Z,99238.39
2019-05-26T14:21:42.036Z,99232.33
2019-05-26T14:24:10.429Z,99223.36
2019-05-26T14:26:38.842Z,99231.33
2019-05-26T14:29:07.382Z,99226.88
2019-05-26T14:31:35.786Z,99221.75
2019-05-26T14:34:04.259Z,99220.66
2019-05-26T14:36:32.909Z,99216.87
2019-05-26T14:39:01.310Z,99216.48
2019-05-26T14:41:29.695Z,99214.34
2019-05-26T14:43:58.109Z,99213.42
2019-05-26T14:46:26.510Z,99214.33
2019-05-26T14:48:55.210Z,99206.55
2019-05-26T14:51:23.623Z,99208.44
2019-05-26T14:53:52.030Z,99202.52
2019-05-26T14:56:20.441Z,99198.06
2019-05-26T14:58:48.832Z,99201.94
2019-05-26T15:01:17.385Z,99204.58
2019-05-26T15:03:45.780Z,99201.44
2019-05-26T15:06:17.889Z,99198.44
2019-05-26T15:08:46.640Z,99196.57
2019-05-26T15:11:20.106Z,99193.65
2019-05-26T15:13:48.576Z,99193.00
2019-05-26T15:16:17.439Z,99184.55
2019-05-26T15:18:45.853Z,99187.78
2019-05-26T15:21:14.280Z,99183.83
2019-05-26T15:23:42.672Z,99182.91
2019-05-26T15:26:11.097Z,99180.08
2019-05-26T15:28:39.505Z,99171.56
2019-05-26T15:31:10.055Z,99171.27
2019-05-26T15:33:38.079Z,99167.08
2019-05-26T15:36:06.477Z,99164.47
2019-05-26T15:38:43.020Z,99158.14
2019-05-26T15:41:05.082Z,99158.95
2019-05-26T15:43:33.488Z,99162.28
2019-05-26T15:46:01.874Z,99153.03
2019-05-26T15:48:30.283Z,99166.48
2019-05-26T15:50:58.692Z,99164.28
2019-05-26T15:53:27.099Z,99163.09
2019-05-26T15:55:55.497Z,99164.67
2019-05-26T15:58:23.902Z,99155.04
2019-05-26T16:00:52.295Z,99157.25
2019-05-26T16:03:20.710Z,99155.66
2019-05-26T16:05:49.111Z,99157.47
2019-05-26T16:08:17.521Z,99157.89
2019-05-26T16:10:45.913Z,99151.11
2019-05-26T16:13:14.305Z,99140.82
2019-05-26T16:15:42.790Z,99153.11
2019-05-26T16:18:11.181Z,99154.14
2019-05-26T16:20:39.572Z,99157.23
2019-05-26T16:23:08.954Z,99152.89
2019-05-26T16:25:37.537Z,99155.33
2019-05-26T16:28:05.931Z,99148.72
2019-05-26T16:30:34.348Z,99154.47
2019-05-26T16:33:03.061Z,99154.36
2019-05-26T16:35:31.530Z,99156.66
2019-05-26T16:37:59.950Z,99155.03
2019-05-26T16:40:28.345Z,99153.52
2019-05-26T16:42:56.737Z,99150.77
2019-05-26T16:45:25.179Z,99152.06
2019-05-26T16:47:53.569Z,99149.06
2019-05-26T16:50:21.971Z,99152.90
2019-05-26T16:52:54.225Z,99149.09
2019-05-26T16:55:20.797Z,99152.92
2019-05-26T16:57:49.515Z,99140.86
2019-05-26T17:00:18.709Z,99149.00
2019-05-26T17:02:47.104Z,99146.53
2019-05-26T17:05:15.965Z,99143.59
2019-05-26T17:07:44.374Z,99143.53
2019-05-26T17:10:13.080Z,99145.46
2019-05-26T17:12:41.456Z,99146.16
2019-05-26T17:15:10.348Z,99142.47
2019-05-26T17:17:38.778Z,99145.64
2019-05-26T17:20:09.235Z,99140.03
2019-05-26T17:22:37.626Z,99135.17
2019-05-26T17:25:07.173Z,99135.50
2019-05-26T17:27:35.633Z,99134.42
2019-05-26T17:30:07.922Z,99131.87
2019-05-26T17:32:36.318Z,99126.39
2019-05-26T17:35:06.267Z,99128.70
2019-05-26T17:37:35.121Z,99125.70
2019-05-26T17:40:06.021Z,99120.22
2019-05-26T17:42:35.194Z,99128.25
2019-05-26T17:45:06.071Z,99118.62
2019-05-26T17:47:34.943Z,99117.22
2019-05-26T17:50:05.306Z,99110.66
2019-05-26T17:52:33.979Z,99109.80
2019-05-26T17:55:02.754Z,99105.56
2019-05-26T17:57:31.473Z,99113.85
2019-05-26T18:00:02.459Z,99106.45
2019-05-26T18:02:31.106Z,99105.05
2019-05-26T18:04:59.496Z,99108.56
2019-05-26T18:07:28.048Z,99100.56
2019-05-26T18:09:56.508Z,99093.13
2019-05-26T18:12:25.062Z,99089.30
2019-05-26T18:14:53.729Z,99090.89
2019-05-26T18:17:23.582Z,99083.48
2019-05-26T18:19:51.967Z,99081.52
2019-05-26T18:22:20.388Z,99069.97
2019-05-26T18:24:56.667Z,99077.38
2019-05-26T18:27:18.949Z,99074.05
2019-05-26T18:29:47.330Z,99072.16
2019-05-26T18:32:15.787Z,99070.41
2019-05-26T18:34:44.434Z,99065.56
2019-05-26T18:37:13.110Z,99067.84
2019-05-26T18:39:41.529Z,99067.30
2019-05-26T18:42:09.926Z,99066.09
2019-05-26T18:44:38.321Z,99057.43
2019-05-26T18:47:06.738Z,99056.09
2019-05-26T18:49:35.427Z,99058.00
2019-05-26T18:52:04.074Z,99058.66
2019-05-26T18:54:32.461Z,99057.40
2019-05-26T18:57:01.113Z,99054.78
2019-05-26T18:59:29.513Z,99054.95
2019-05-26T19:01:57.919Z,99053.61
2019-05-26T19:04:26.315Z,99048.14
2019-05-26T19:06:54.741Z,99055.63
2019-05-26T19:09:23.141Z,99050.08
2019-05-26T19:11:51.562Z,99046.69
2019-05-26T19:14:20.027Z,99044.99
2019-05-26T19:16:48.476Z,99041.34
2019-05-26T19:19:17.171Z,99051.75
2019-05-26T19:21:45.581Z,99054.23
2019-05-26T19:24:14.340Z,99053.55
2019-05-26T19:26:42.756Z,99055.77
2019-05-26T19:29:11.145Z,99054.17
2019-05-26T19:31:39.557Z,99054.23
2019-05-26T19:34:07.943Z,99059.91
2019-05-26T19:36:36.637Z,99052.89
2019-05-26T19:39:08.060Z,99052.83
2019-05-26T19:41:39.092Z,99059.39
2019-05-26T19:44:07.269Z,99060.62
2019-05-26T19:46:35.709Z,99055.70
2019-05-26T19:49:04.569Z,99049.41
2019-05-26T19:51:32.962Z,99050.74
2019-05-26T19:54:01.422Z,99053.48
2019-05-26T19:56:29.830Z,99052.77
2019-05-26T19:58:58.231Z,99062.98
2019-05-26T20:01:26.918Z,99057.83
2019-05-26T20:03:55.553Z,99062.66
2019-05-26T20:06:23.999Z,99060.98
2019-05-26T20:08:52.422Z,99056.28
2019-05-26T20:11:20.830Z,99059.12
2019-05-26T20:13:49.243Z,99057.91
2019-05-26T20:16:17.635Z,99057.72
2019-05-26T20:18:46.046Z,99059.56
2019-05-26T20:21:14.471Z,99061.65
2019-05-26T20:23:43.215Z,99068.99
2019-05-26T20:26:11.640Z,99061.13
2019-05-26T20:28:40.041Z,99065.58
2019-05-26T20:31:08.439Z,99060.03
2019-05-26T20:33:36.865Z,99066.45
2019-05-26T20:36:05.349Z,99069.72
2019-05-26T20:38:33.753Z,99068.11
2019-05-26T20:41:02.192Z,99070.39
2019-05-26T20:43:30.565Z,99071.18
2019-05-26T20:45:58.955Z,99068.05
2019-05-26T20:48:27.346Z,99071.18
2019-05-26T20:50:55.767Z,99069.33
2019-05-26T20:53:24.194Z,99075.46
2019-05-26T20:55:52.598Z,99070.27
2019-05-26T20:58:21.059Z,99068.39
2019-05-26T21:00:49.530Z,99065.44
2019-05-26T21:03:17.924Z,99069.30
2019-05-26T21:05:46.650Z,99071.97
2019-05-26T21:08:15.131Z,99069.84
2019-05-26T21:10:43.541Z,99077.03
2019-05-26T21:13:11.958Z,99077.58
2019-05-26T21:15:40.372Z,99079.98
2019-05-26T21:18:08.765Z,99076.64
2019-05-26T21:20:37.187Z,99079.42
2019-05-26T21:23:05.584Z,99077.94
2019-05-26T21:25:33.987Z,99076.92
2019-05-26T21:28:02.383Z,99076.30
2019-05-26T21:30:30.806Z,99066.75
2019-05-26T21:32:59.465Z,99069.30
2019-05-26T21:35:27.970Z,99068.63
2019-05-26T21:37:56.379Z,99066.41
2019-05-26T21:40:24.787Z,99061.62
2019-05-26T21:42:53.181Z,99056.50
2019-05-26T21:45:21.925Z,99064.84
2019-05-26T21:47:50.311Z,99064.13
2019-05-26T21:50:18.769Z,99060.09
2019-05-26T21:52:47.185Z,99057.78
2019-05-26T21:55:16.018Z,99064.94
2019-05-26T21:57:44.421Z,99062.55
2019-05-26T22:00:15.401Z,99060.09
2019-05-26T22:02:43.796Z,99061.77
2019-05-26T22:05:12.644Z,99058.91
2019-05-26T22:07:41.206Z,99054.27
2019-05-26T22:10:09.771Z,99056.59
2019-05-26T22:12:38.168Z,99053.20
2019-05-26T22:15:08.104Z,99054.47
2019-05-26T22:17:36.526Z,99062.27
2019-05-26T22:20:06.366Z,99058.47
2019-05-26T22:22:34.761Z,99057.77
2019-05-26T22:25:04.126Z,99061.01
2019-05-26T22:27:32.521Z,99049.16
2019-05-26T22:30:00.910Z,99049.36
2019-05-26T22:32:29.397Z,99050.35
2019-05-26T22:34:57.788Z,99051.38
2019-05-26T22:37:26.198Z,99048.41
2019-05-26T22:39:54.844Z,99042.11
2019-05-26T22:42:23.245Z,99039.02
2019-05-26T22:44:51.641Z,99035.92
2019-05-26T22:47:20.423Z,99042.31
2019-05-26T22:49:48.812Z,99038.00
2019-05-26T22:52:17.918Z,99034.18
2019-05-26T22:54:46.394Z,99028.58
2019-05-26T22:57:15.153Z,99031.51
2019-05-26T22:59:43.545Z,99031.97
2019-05-26T23:02:11.951Z,99030.09
2019-05-26T23:04:40.344Z,99026.67
2019-05-26T23:07:08.767Z,99028.08
2019-05-26T23:09:37.157Z,99023.97
2019-05-26T23:12:05.636Z,99019.73
2019-05-26T23:14:34.027Z,99019.13
2019-05-26T23:17:02.441Z,99014.69
2019-05-26T23:19:31.152Z,99011.82
2019-05-26T23:21:59.566Z,99011.82
2019-05-26T23:24:27.957Z,99002.52
2019-05-26T23:26:56.373Z,99009.92
2019-05-26T23:29:24.778Z,99009.39
2019-05-26T23:31:53.182Z,99004.42
2019-05-26T23:34:21.587Z,99004.79
2019-05-26T23:36:50.004Z,99004.33
2019-05-26T23:39:18.402Z,99000.53
2019-05-26T23:41:46.790Z,98999.45
2019-05-26T23:44:15.204Z,99001.03
2019-05-26T23:46:43.602Z,99007.36
2019-05-26T23:49:12.003Z,99005.73
2019-05-26T23:51:40.393Z,99002.27
2019-05-26T23:54:08.869Z,98999.47
2019-05-26T23:56:37.261Z,99001.30
2019-05-26T23:59:05.670Z,99000.09
